createdAt,value
2022-12-11T00:00:12.472Z,-0.56
2022-12-11T00:01:15.271Z,-0.56
2022-12-11T00:02:18.023Z,-0.56
2022-12-11T00:03:58.936Z,-0.56
2022-12-11T00:05:01.599Z,-0.56
2022-12-11T00:06:04.752Z,-0.56
2022-12-11T00:07:39.291Z,-0.56
2022-12-11T00:08:42.333Z,-0.50
2022-12-11T00:09:45.107Z,-0.50
2022-12-11T00:11:24.071Z,-0.50
2022-12-11T00:12:26.791Z,-0.50
2022-12-11T00:13:29.619Z,-0.50
2022-12-11T00:15:04.082Z,-0.50
2022-12-11T00:16:07.582Z,-0.56
2022-12-11T00:17:18.483Z,-0.50
2022-12-11T00:18:53.057Z,-0.50
2022-12-11T00:19:55.759Z,-0.50
2022-12-11T00:20:58.536Z,-0.50
2022-12-11T00:22:32.954Z,-0.50
2022-12-11T00:23:35.778Z,-0.50
2022-12-11T00:24:38.715Z,-0.50
2022-12-11T00:26:13.240Z,-0.50
2022-12-11T00:27:15.887Z,-0.50
2022-12-11T00:28:18.789Z,-0.50
2022-12-11T00:29:53.625Z,-0.50
2022-12-11T00:30:56.238Z,-0.50
2022-12-11T00:31:59.220Z,-0.50
2022-12-11T00:33:35.348Z,-0.44
2022-12-11T00:34:38.245Z,-0.50
2022-12-11T00:35:41.287Z,-0.50
2022-12-11T00:37:15.857Z,-0.50
2022-12-11T00:38:19.203Z,-0.50
2022-12-11T00:39:21.901Z,-0.50
2022-12-11T00:40:56.249Z,-0.50
2022-12-11T00:41:59.048Z,-0.50
2022-12-11T00:43:01.894Z,-0.50
2022-12-11T00:44:36.430Z,-0.50
2022-12-11T00:45:39.325Z,-0.50
2022-12-11T00:46:42.422Z,-0.50
2022-12-11T00:48:17.042Z,-0.50
2022-12-11T00:49:19.772Z,-0.50
2022-12-11T00:50:30.149Z,-0.50
2022-12-11T00:52:04.641Z,-0.50
2022-12-11T00:53:07.432Z,-0.50
2022-12-11T00:54:10.143Z,-0.50
2022-12-11T00:55:45.136Z,-0.50
2022-12-11T00:56:47.940Z,-0.50
2022-12-11T00:57:50.637Z,-0.50
2022-12-11T00:59:25.190Z,-0.50
2022-12-11T01:00:11.439Z,-0.50
2022-12-11T01:01:14.243Z,-0.50
2022-12-11T01:02:17.594Z,-0.50
2022-12-11T01:03:52.550Z,-0.50
2022-12-11T01:04:55.375Z,-0.50
2022-12-11T01:05:58.790Z,-0.50
2022-12-11T01:07:33.403Z,-0.50
2022-12-11T01:08:38.711Z,-0.50
2022-12-11T01:09:42.087Z,-0.50
2022-12-11T01:11:17.072Z,-0.50
2022-12-11T01:12:19.841Z,-0.50
2022-12-11T01:13:22.551Z,-0.50
2022-12-11T01:14:57.040Z,-0.50
2022-12-11T01:16:00.412Z,-0.50
2022-12-11T01:17:03.747Z,-0.50
2022-12-11T01:18:38.331Z,-0.50
2022-12-11T01:19:41.112Z,-0.50
2022-12-11T01:20:43.855Z,-0.50
2022-12-11T01:22:18.416Z,-0.50
2022-12-11T01:23:21.120Z,-0.50
2022-12-11T01:24:23.889Z,-0.50
2022-12-11T01:25:58.830Z,-0.50
2022-12-11T01:27:01.599Z,-0.50
2022-12-11T01:28:04.442Z,-0.50
2022-12-11T01:29:38.939Z,-0.44
2022-12-11T01:30:41.866Z,-0.44
2022-12-11T01:31:45.207Z,-0.44
2022-12-11T01:33:19.633Z,-0.44
2022-12-11T01:34:22.360Z,-0.44
2022-12-11T01:35:25.116Z,-0.44
2022-12-11T01:36:59.687Z,-0.44
2022-12-11T01:38:02.303Z,-0.44
2022-12-11T01:39:04.949Z,-0.44
2022-12-11T01:40:39.540Z,-0.44
2022-12-11T01:41:42.278Z,-0.44
2022-12-11T01:42:44.979Z,-0.38
2022-12-11T01:44:19.574Z,-0.38
2022-12-11T01:45:24.687Z,-0.38
2022-12-11T01:46:29.720Z,-0.38
2022-12-11T01:48:04.411Z,-0.38
2022-12-11T01:49:08.868Z,-0.38
2022-12-11T01:50:11.640Z,-0.38
2022-12-11T01:51:46.302Z,-0.38
2022-12-11T01:52:48.953Z,-0.38
2022-12-11T01:53:51.663Z,-0.38
2022-12-11T01:55:26.216Z,-0.38
2022-12-11T01:56:29.112Z,-0.38
2022-12-11T01:57:31.835Z,-0.38
2022-12-11T01:59:06.180Z,-0.38
2022-12-11T02:00:12.261Z,-0.38
2022-12-11T02:01:15.075Z,-0.38
2022-12-11T02:02:18.425Z,-0.38
2022-12-11T02:03:53.498Z,-0.38
2022-12-11T02:04:56.191Z,-0.38
2022-12-11T02:05:59.700Z,-0.38
2022-12-11T02:07:34.398Z,-0.38
2022-12-11T02:08:37.902Z,-0.38
2022-12-11T02:09:40.826Z,-0.38
2022-12-11T02:11:15.518Z,-0.38
2022-12-11T02:12:18.308Z,-0.38
2022-12-11T02:13:20.925Z,-0.31
2022-12-11T02:14:55.662Z,-0.31
2022-12-11T02:15:58.918Z,-0.31
2022-12-11T02:17:02.006Z,-0.31
2022-12-11T02:18:36.729Z,-0.31
2022-12-11T02:19:39.561Z,-0.31
2022-12-11T02:20:42.421Z,-0.31
2022-12-11T02:22:16.887Z,-0.31
2022-12-11T02:23:19.771Z,-0.31
2022-12-11T02:24:22.581Z,-0.31
2022-12-11T02:25:57.453Z,-0.31
2022-12-11T02:27:00.230Z,-0.31
2022-12-11T02:28:02.906Z,-0.31
2022-12-11T02:29:37.369Z,-0.31
2022-12-11T02:30:40.162Z,-0.31
2022-12-11T02:31:42.913Z,-0.31
2022-12-11T02:33:17.760Z,-0.31
2022-12-11T02:34:20.458Z,-0.31
2022-12-11T02:35:23.040Z,-0.31
2022-12-11T02:36:57.736Z,-0.31
2022-12-11T02:38:00.335Z,-0.31
2022-12-11T02:39:03.037Z,-0.31
2022-12-11T02:40:37.506Z,-0.31
2022-12-11T02:41:40.375Z,-0.31
2022-12-11T02:42:43.286Z,-0.31
2022-12-11T02:44:17.950Z,-0.31
2022-12-11T02:45:20.549Z,-0.31
2022-12-11T02:46:23.675Z,-0.31
2022-12-11T02:47:58.251Z,-0.31
2022-12-11T02:49:01.130Z,-0.25
2022-12-11T02:50:03.909Z,-0.31
2022-12-11T02:51:38.392Z,-0.31
2022-12-11T02:52:41.183Z,-0.31
2022-12-11T02:53:43.923Z,-0.31
2022-12-11T02:55:18.565Z,-0.31
2022-12-11T02:56:21.350Z,-0.31
2022-12-11T02:57:24.079Z,-0.31
2022-12-11T02:58:58.948Z,-0.31
2022-12-11T03:00:12.080Z,-0.31
2022-12-11T03:01:14.810Z,-0.25
2022-12-11T03:02:18.342Z,-0.25
2022-12-11T03:03:53.591Z,-0.25
2022-12-11T03:04:56.199Z,-0.25
2022-12-11T03:05:59.506Z,-0.25
2022-12-11T03:07:34.014Z,-0.25
2022-12-11T03:08:37.031Z,-0.25
2022-12-11T03:09:39.741Z,-0.25
2022-12-11T03:11:14.248Z,-0.25
2022-12-11T03:12:17.034Z,-0.25
2022-12-11T03:13:25.280Z,-0.25
2022-12-11T03:14:59.685Z,-0.25
2022-12-11T03:16:03.002Z,-0.25
2022-12-11T03:17:06.131Z,-0.25
2022-12-11T03:18:40.558Z,-0.25
2022-12-11T03:19:43.343Z,-0.25
2022-12-11T03:20:46.067Z,-0.25
2022-12-11T03:22:20.539Z,-0.25
2022-12-11T03:23:23.341Z,-0.19
2022-12-11T03:24:25.990Z,-0.19
2022-12-11T03:26:00.707Z,-0.19
2022-12-11T03:27:08.101Z,-0.19
2022-12-11T03:28:13.569Z,-0.19
2022-12-11T03:29:48.172Z,-0.19
2022-12-11T03:30:51.475Z,-0.19
2022-12-11T03:31:54.541Z,-0.19
2022-12-11T03:33:29.282Z,-0.19
2022-12-11T03:34:31.991Z,-0.19
2022-12-11T03:35:51.366Z,-0.19
2022-12-11T03:37:25.900Z,-0.19
2022-12-11T03:38:28.672Z,-0.19
2022-12-11T03:39:31.346Z,-0.19
2022-12-11T03:41:05.999Z,-0.19
2022-12-11T03:42:08.626Z,-0.19
2022-12-11T03:43:11.346Z,-0.19
2022-12-11T03:44:45.860Z,-0.19
2022-12-11T03:45:49.206Z,-0.19
2022-12-11T03:46:52.653Z,-0.19
2022-12-11T03:48:27.140Z,-0.19
2022-12-11T03:49:29.930Z,-0.19
2022-12-11T03:50:32.631Z,-0.19
2022-12-11T03:52:07.050Z,-0.19
2022-12-11T03:53:09.981Z,-0.19
2022-12-11T03:54:12.624Z,-0.19
2022-12-11T03:55:47.829Z,-0.19
2022-12-11T03:56:50.543Z,-0.19
2022-12-11T03:57:53.587Z,-0.19
2022-12-11T03:59:28.090Z,-0.19
2022-12-11T04:00:12.010Z,-0.19
2022-12-11T04:01:14.715Z,-0.19
2022-12-11T04:02:17.848Z,-0.19
2022-12-11T04:03:59.449Z,-0.19
2022-12-11T04:05:02.550Z,-0.19
2022-12-11T04:06:05.989Z,-0.19
2022-12-11T04:07:40.520Z,-0.19
2022-12-11T04:08:43.819Z,-0.19
2022-12-11T04:09:46.641Z,-0.19
2022-12-11T04:11:21.040Z,-0.13
2022-12-11T04:12:23.923Z,-0.13
2022-12-11T04:13:26.692Z,-0.13
2022-12-11T04:15:01.157Z,-0.13
2022-12-11T04:16:04.588Z,-0.13
2022-12-11T04:17:07.584Z,-0.13
2022-12-11T04:18:42.156Z,-0.13
2022-12-11T04:19:44.903Z,-0.13
2022-12-11T04:20:47.627Z,-0.13
2022-12-11T04:22:25.921Z,-0.13
2022-12-11T04:23:28.774Z,-0.13
2022-12-11T04:24:31.431Z,-0.13
2022-12-11T04:26:06.115Z,-0.13
2022-12-11T04:27:08.848Z,-0.13
2022-12-11T04:28:11.686Z,-0.13
2022-12-11T04:29:46.460Z,-0.13
2022-12-11T04:30:49.467Z,-0.13
2022-12-11T04:31:52.675Z,-0.13
2022-12-11T04:33:27.097Z,-0.13
2022-12-11T04:34:29.757Z,-0.13
2022-12-11T04:35:32.589Z,-0.13
2022-12-11T04:37:07.063Z,-0.13
2022-12-11T04:38:09.765Z,-0.13
2022-12-11T04:39:12.539Z,-0.13
2022-12-11T04:40:46.972Z,-0.13
2022-12-11T04:41:49.762Z,-0.13
2022-12-11T04:42:52.552Z,-0.13
2022-12-11T04:44:27.000Z,-0.13
2022-12-11T04:45:29.901Z,-0.13
2022-12-11T04:46:32.770Z,-0.13
2022-12-11T04:48:07.861Z,-0.06
2022-12-11T04:49:10.786Z,-0.13
2022-12-11T04:50:13.367Z,-0.13
2022-12-11T04:51:47.954Z,-0.13
2022-12-11T04:52:50.706Z,-0.13
2022-12-11T04:53:53.350Z,-0.06
2022-12-11T04:55:27.979Z,-0.06
2022-12-11T04:56:30.725Z,-0.13
2022-12-11T04:57:33.764Z,-0.06
2022-12-11T04:59:08.373Z,-0.06
2022-12-11T05:00:12.220Z,-0.06
2022-12-11T05:01:15.051Z,-0.06
2022-12-11T05:02:18.381Z,-0.13
2022-12-11T05:03:53.525Z,-0.06
2022-12-11T05:04:56.225Z,-0.13
2022-12-11T05:05:41.807Z,-0.13
2022-12-11T05:06:44.589Z,-0.13
2022-12-11T05:07:47.347Z,-0.13
2022-12-11T05:09:22.329Z,-0.13
2022-12-11T05:10:25.283Z,-0.06
2022-12-11T05:11:36.028Z,-0.06
2022-12-11T05:13:10.697Z,-0.06
2022-12-11T05:14:13.635Z,-0.06
2022-12-11T05:15:16.432Z,-0.06
2022-12-11T05:16:51.400Z,-0.06
2022-12-11T05:17:54.191Z,-0.06
2022-12-11T05:18:56.929Z,-0.06
2022-12-11T05:20:31.790Z,-0.06
2022-12-11T05:21:35.339Z,-0.06
2022-12-11T05:22:38.199Z,-0.06
2022-12-11T05:24:12.878Z,0.00
2022-12-11T05:25:15.571Z,0.00
2022-12-11T05:26:18.353Z,0.00
2022-12-11T05:27:52.901Z,0.00
2022-12-11T05:28:55.661Z,0.00
2022-12-11T05:29:59.545Z,0.00
2022-12-11T05:31:34.546Z,0.00
2022-12-11T05:32:37.548Z,0.00
2022-12-11T05:33:40.441Z,0.00
2022-12-11T05:35:15.213Z,0.00
2022-12-11T05:36:18.032Z,0.00
2022-12-11T05:37:20.870Z,0.00
2022-12-11T05:38:55.496Z,0.00
2022-12-11T05:39:58.342Z,0.00
2022-12-11T05:41:01.131Z,0.00
2022-12-11T05:42:35.626Z,0.00
2022-12-11T05:43:38.457Z,0.00
2022-12-11T05:44:41.326Z,0.00
2022-12-11T05:46:16.864Z,0.00
2022-12-11T05:47:20.293Z,0.00
2022-12-11T05:48:23.217Z,0.00
2022-12-11T05:50:05.943Z,0.06
2022-12-11T05:51:08.655Z,0.06
2022-12-11T05:52:11.428Z,0.06
2022-12-11T05:53:46.038Z,0.06
2022-12-11T05:54:48.739Z,0.06
2022-12-11T05:55:51.953Z,0.06
2022-12-11T05:57:26.535Z,0.06
2022-12-11T05:58:29.211Z,0.06
2022-12-11T05:59:31.955Z,0.00
2022-12-11T06:00:12.056Z,0.06
2022-12-11T06:01:21.932Z,0.06
2022-12-11T06:02:25.787Z,0.00
2022-12-11T06:04:01.510Z,0.00
2022-12-11T06:05:04.092Z,0.00
2022-12-11T06:06:07.472Z,0.00
2022-12-11T06:07:41.977Z,0.00
2022-12-11T06:08:45.003Z,0.00
2022-12-11T06:09:47.696Z,0.00
2022-12-11T06:11:24.200Z,0.00
2022-12-11T06:12:27.149Z,0.00
2022-12-11T06:13:29.941Z,0.06
2022-12-11T06:15:04.598Z,0.00
2022-12-11T06:16:08.227Z,0.00
2022-12-11T06:17:11.662Z,0.06
2022-12-11T06:18:46.357Z,0.00
2022-12-11T06:19:55.152Z,0.00
2022-12-11T06:20:57.870Z,0.00
2022-12-11T06:22:32.487Z,0.06
2022-12-11T06:23:35.455Z,0.06
2022-12-11T06:24:38.273Z,0.06
2022-12-11T06:26:12.853Z,0.06
2022-12-11T06:27:15.679Z,0.00
2022-12-11T06:28:18.381Z,0.06
2022-12-11T06:29:58.828Z,0.06
2022-12-11T06:31:14.373Z,0.06
2022-12-11T06:32:19.221Z,0.06
2022-12-11T06:33:54.125Z,0.06
2022-12-11T06:34:57.090Z,0.00
2022-12-11T06:36:00.475Z,0.06
2022-12-11T06:37:35.123Z,0.06
2022-12-11T06:38:37.944Z,0.06
2022-12-11T06:39:40.930Z,0.06
2022-12-11T06:41:15.447Z,0.06
2022-12-11T06:42:18.189Z,0.06
2022-12-11T06:43:21.076Z,0.06
2022-12-11T06:44:55.591Z,0.06
2022-12-11T06:46:03.642Z,0.06
2022-12-11T06:47:07.443Z,0.06
2022-12-11T06:48:42.242Z,0.06
2022-12-11T06:49:45.137Z,0.06
2022-12-11T06:50:47.937Z,0.06
2022-12-11T06:52:22.375Z,0.06
2022-12-11T06:53:25.184Z,0.06
2022-12-11T06:54:27.949Z,0.06
2022-12-11T06:56:02.420Z,0.06
2022-12-11T06:57:05.317Z,0.06
2022-12-11T06:58:08.204Z,0.06
2022-12-11T06:59:48.021Z,0.06
2022-12-11T07:00:12.345Z,0.06
2022-12-11T07:01:15.377Z,0.06
2022-12-11T07:02:18.708Z,0.06
2022-12-11T07:03:53.769Z,0.06
2022-12-11T07:04:56.729Z,0.06
2022-12-11T07:06:00.281Z,0.06
2022-12-11T07:07:34.965Z,0.06
2022-12-11T07:08:37.988Z,0.06
2022-12-11T07:09:40.908Z,0.06
2022-12-11T07:11:23.820Z,0.06
2022-12-11T07:12:26.707Z,0.06
2022-12-11T07:13:29.441Z,0.06
2022-12-11T07:15:03.871Z,0.06
2022-12-11T07:16:11.396Z,0.06
2022-12-11T07:17:14.669Z,0.06
2022-12-11T07:18:49.274Z,0.06
2022-12-11T07:19:52.360Z,0.06
2022-12-11T07:20:55.131Z,0.06
2022-12-11T07:22:29.716Z,0.06
2022-12-11T07:23:38.297Z,0.06
2022-12-11T07:24:40.986Z,0.06
2022-12-11T07:26:15.986Z,0.06
2022-12-11T07:27:18.740Z,0.06
2022-12-11T07:28:21.535Z,0.06
2022-12-11T07:29:56.284Z,0.06
2022-12-11T07:30:58.974Z,0.06
2022-12-11T07:32:02.318Z,0.06
2022-12-11T07:33:38.500Z,0.06
2022-12-11T07:34:41.283Z,0.06
2022-12-11T07:35:49.624Z,0.06
2022-12-11T07:37:24.253Z,0.06
2022-12-11T07:38:26.897Z,0.06
2022-12-11T07:39:29.664Z,0.06
2022-12-11T07:41:04.258Z,0.06
2022-12-11T07:42:06.974Z,0.06
2022-12-11T07:43:09.795Z,0.06
2022-12-11T07:44:44.476Z,0.06
2022-12-11T07:45:47.818Z,0.06
2022-12-11T07:46:50.977Z,0.06
2022-12-11T07:48:25.459Z,0.06
2022-12-11T07:49:28.349Z,0.06
2022-12-11T07:50:35.099Z,0.06
2022-12-11T07:52:12.623Z,0.06
2022-12-11T07:53:15.519Z,0.06
2022-12-11T07:54:18.259Z,0.06
2022-12-11T07:55:53.252Z,0.06
2022-12-11T07:56:56.020Z,0.06
2022-12-11T07:58:05.917Z,0.06
2022-12-11T07:59:40.530Z,0.06
2022-12-11T08:00:12.110Z,0.06
2022-12-11T08:01:14.866Z,0.06
2022-12-11T08:02:18.148Z,0.06
2022-12-11T08:04:00.828Z,0.13
2022-12-11T08:05:03.438Z,0.06
2022-12-11T08:06:06.580Z,0.13
2022-12-11T08:07:41.180Z,0.13
2022-12-11T08:08:44.281Z,0.13
2022-12-11T08:09:55.636Z,0.13
2022-12-11T08:11:30.103Z,0.13
2022-12-11T08:12:32.880Z,0.13
2022-12-11T08:13:35.971Z,0.13
2022-12-11T08:15:10.831Z,0.13
2022-12-11T08:16:13.842Z,0.13
2022-12-11T08:17:17.215Z,0.13
2022-12-11T08:19:03.708Z,0.06
2022-12-11T08:20:06.587Z,0.13
2022-12-11T08:21:09.423Z,0.06
2022-12-11T08:22:44.122Z,0.06
2022-12-11T08:23:53.288Z,0.13
2022-12-11T08:24:56.092Z,0.06
2022-12-11T08:26:31.511Z,0.06
2022-12-11T08:27:34.435Z,0.13
2022-12-11T08:28:37.178Z,0.13
2022-12-11T08:30:12.118Z,0.06
2022-12-11T08:31:15.258Z,0.06
2022-12-11T08:32:18.207Z,0.13
2022-12-11T08:33:52.899Z,0.13
2022-12-11T08:34:55.645Z,0.13
2022-12-11T08:35:58.864Z,0.13
2022-12-11T08:37:33.463Z,0.13
2022-12-11T08:38:36.248Z,0.13
2022-12-11T08:39:39.091Z,0.13
2022-12-11T08:41:13.723Z,0.13
2022-12-11T08:42:16.652Z,0.06
2022-12-11T08:43:19.446Z,0.13
2022-12-11T08:45:02.016Z,0.13
2022-12-11T08:46:05.340Z,0.13
2022-12-11T08:47:08.530Z,0.13
2022-12-11T08:48:43.012Z,0.13
2022-12-11T08:49:45.842Z,0.13
2022-12-11T08:50:48.501Z,0.13
2022-12-11T08:52:23.066Z,0.13
2022-12-11T08:53:25.907Z,0.13
2022-12-11T08:54:28.571Z,0.13
2022-12-11T08:56:03.348Z,0.13
2022-12-11T08:57:06.104Z,0.13
2022-12-11T08:58:08.831Z,0.13
2022-12-11T08:59:43.474Z,0.13
2022-12-11T09:00:11.694Z,0.13
2022-12-11T09:01:14.463Z,0.13
2022-12-11T09:02:18.006Z,0.13
2022-12-11T09:03:58.805Z,0.13
2022-12-11T09:05:01.495Z,0.13
2022-12-11T09:06:04.997Z,0.13
2022-12-11T09:07:39.500Z,0.13
2022-12-11T09:08:46.035Z,0.13
2022-12-11T09:09:53.359Z,0.13
2022-12-11T09:11:28.023Z,0.13
2022-12-11T09:12:31.078Z,0.13
2022-12-11T09:13:34.014Z,0.06
2022-12-11T09:15:14.253Z,0.06
2022-12-11T09:16:17.410Z,0.06
2022-12-11T09:17:20.446Z,0.06
2022-12-11T09:18:54.932Z,0.06
2022-12-11T09:20:02.733Z,0.06
2022-12-11T09:21:05.618Z,0.06
2022-12-11T09:22:40.293Z,0.06
2022-12-11T09:23:43.147Z,0.06
2022-12-11T09:24:45.924Z,0.06
2022-12-11T09:26:20.887Z,0.06
2022-12-11T09:27:23.737Z,0.06
2022-12-11T09:28:26.534Z,0.06
2022-12-11T09:30:09.230Z,0.00
2022-12-11T09:31:12.232Z,0.00
2022-12-11T09:32:15.510Z,0.00
2022-12-11T09:33:50.072Z,0.00
2022-12-11T09:34:52.769Z,0.00
2022-12-11T09:35:56.227Z,0.00
2022-12-11T09:37:30.923Z,0.00
2022-12-11T09:38:33.786Z,0.00
2022-12-11T09:39:36.694Z,0.00
2022-12-11T09:41:19.483Z,0.00
2022-12-11T09:42:22.281Z,0.00
2022-12-11T09:43:25.234Z,0.00
2022-12-11T09:44:59.754Z,0.00
2022-12-11T09:46:03.062Z,0.00
2022-12-11T09:47:15.130Z,0.00
2022-12-11T09:48:49.554Z,0.00
2022-12-11T09:49:52.371Z,0.00
2022-12-11T09:50:55.468Z,0.00
2022-12-11T09:52:29.950Z,0.00
2022-12-11T09:53:34.417Z,0.00
2022-12-11T09:54:37.287Z,0.00
2022-12-11T09:56:11.872Z,-0.06
2022-12-11T09:57:14.579Z,-0.06
2022-12-11T09:58:17.632Z,-0.06
2022-12-11T09:59:52.285Z,-0.06
2022-12-11T10:00:11.618Z,-0.06
2022-12-11T10:01:14.481Z,-0.06
2022-12-11T10:02:17.719Z,-0.06
2022-12-11T10:03:52.893Z,-0.06
2022-12-11T10:04:55.527Z,-0.06
2022-12-11T10:06:04.290Z,-0.06
2022-12-11T10:07:39.692Z,-0.06
2022-12-11T10:08:42.818Z,-0.06
2022-12-11T10:09:45.546Z,-0.06
2022-12-11T10:11:20.328Z,-0.06
2022-12-11T10:12:31.372Z,-0.06
2022-12-11T10:13:34.199Z,0.00
2022-12-11T10:15:09.069Z,0.00
2022-12-11T10:16:12.812Z,0.00
2022-12-11T10:17:15.794Z,0.00
2022-12-11T10:18:51.605Z,0.00
2022-12-11T10:19:54.322Z,0.00
2022-12-11T10:20:57.134Z,0.00
2022-12-11T10:22:31.719Z,0.00
2022-12-11T10:23:34.687Z,0.00
2022-12-11T10:25:07.448Z,0.00
2022-12-11T10:26:44.237Z,0.00
2022-12-11T10:27:47.067Z,0.00
2022-12-11T10:28:49.869Z,0.00
2022-12-11T10:30:24.645Z,0.00
2022-12-11T10:31:32.162Z,0.00
2022-12-11T10:32:35.140Z,0.00
2022-12-11T10:34:09.775Z,0.06
2022-12-11T10:35:12.769Z,0.06
2022-12-11T10:36:15.639Z,0.06
2022-12-11T10:37:50.660Z,0.06
2022-12-11T10:38:53.399Z,0.06
2022-12-11T10:39:56.124Z,0.06
2022-12-11T10:41:30.767Z,0.06
2022-12-11T10:42:33.469Z,0.06
2022-12-11T10:43:42.818Z,0.06
2022-12-11T10:45:17.749Z,0.06
2022-12-11T10:46:20.604Z,0.06
2022-12-11T10:47:24.161Z,0.06
2022-12-11T10:48:58.855Z,0.13
2022-12-11T10:50:01.637Z,0.13
2022-12-11T10:51:04.443Z,0.13
2022-12-11T10:52:39.056Z,0.13
2022-12-11T10:53:41.874Z,0.13
2022-12-11T10:54:51.658Z,0.06
2022-12-11T10:56:26.595Z,0.13
2022-12-11T10:57:29.505Z,0.13
2022-12-11T10:58:32.235Z,0.13
2022-12-11T11:00:11.958Z,0.13
2022-12-11T11:01:15.039Z,0.13
2022-12-11T11:02:18.308Z,0.13
2022-12-11T11:03:53.494Z,0.13
2022-12-11T11:04:56.337Z,0.13
2022-12-11T11:05:59.626Z,0.13
2022-12-11T11:07:34.364Z,0.13
2022-12-11T11:08:37.583Z,0.13
2022-12-11T11:09:40.430Z,0.13
2022-12-11T11:11:15.103Z,0.19
2022-12-11T11:12:20.270Z,0.19
2022-12-11T11:13:23.021Z,0.19
2022-12-11T11:14:57.702Z,0.19
2022-12-11T11:16:00.875Z,0.19
2022-12-11T11:17:04.204Z,0.19
2022-12-11T11:18:59.559Z,0.19
2022-12-11T11:20:02.713Z,0.19
2022-12-11T11:21:05.499Z,0.19
2022-12-11T11:22:40.124Z,0.19
2022-12-11T11:23:47.286Z,0.19
2022-12-11T11:24:53.410Z,0.19
2022-12-11T11:26:43.909Z,0.25
2022-12-11T11:28:14.360Z,0.25
2022-12-11T11:29:17.133Z,0.25
2022-12-11T11:30:58.487Z,0.25
2022-12-11T11:32:01.794Z,0.25
2022-12-11T11:33:04.511Z,0.31
2022-12-11T11:34:39.058Z,0.31
2022-12-11T11:35:45.669Z,0.31
2022-12-11T11:36:48.653Z,0.31
2022-12-11T11:38:23.297Z,0.31
2022-12-11T11:39:26.016Z,0.31
2022-12-11T11:40:28.931Z,0.31
2022-12-11T11:42:11.543Z,0.31
2022-12-11T11:43:14.296Z,0.31
2022-12-11T11:44:17.156Z,0.31
2022-12-11T11:45:52.135Z,0.38
2022-12-11T11:46:55.201Z,0.38
2022-12-11T11:47:57.950Z,0.38
2022-12-11T11:49:40.113Z,0.38
2022-12-11T11:50:42.990Z,0.38
2022-12-11T11:51:45.883Z,0.38
2022-12-11T11:53:20.460Z,0.38
2022-12-11T11:54:23.349Z,0.38
2022-12-11T11:55:26.115Z,0.44
2022-12-11T11:57:00.936Z,0.44
2022-12-11T11:58:03.738Z,0.44
2022-12-11T11:59:06.465Z,0.44
2022-12-11T12:00:11.949Z,0.44
2022-12-11T12:01:20.063Z,0.44
2022-12-11T12:02:22.900Z,0.44
2022-12-11T12:03:57.981Z,0.44
2022-12-11T12:05:00.849Z,0.44
2022-12-11T12:06:03.950Z,0.44
2022-12-11T12:07:44.333Z,0.44
2022-12-11T12:08:47.590Z,0.50
2022-12-11T12:09:50.386Z,0.44
2022-12-11T12:11:25.748Z,0.44
2022-12-11T12:12:33.633Z,0.44
2022-12-11T12:13:50.433Z,0.44
2022-12-11T12:16:29.234Z,0.50
2022-12-11T12:17:55.359Z,0.50
2022-12-11T12:18:58.609Z,0.50
2022-12-11T12:20:33.227Z,0.50
2022-12-11T12:21:36.105Z,0.50
2022-12-11T12:22:38.834Z,0.50
2022-12-11T12:24:20.975Z,0.50
2022-12-11T12:25:23.819Z,0.50
2022-12-11T12:26:26.745Z,0.50
2022-12-11T12:28:37.468Z,0.50
2022-12-11T12:29:40.262Z,0.50
2022-12-11T12:30:43.184Z,0.50
2022-12-11T12:32:18.230Z,0.50
2022-12-11T12:33:20.992Z,0.50
2022-12-11T12:34:23.807Z,0.50
2022-12-11T12:36:04.955Z,0.56
2022-12-11T12:37:09.579Z,0.50
2022-12-11T12:38:12.515Z,0.50
2022-12-11T12:39:47.157Z,0.50
2022-12-11T12:40:50.093Z,0.50
2022-12-11T12:41:52.928Z,0.56
2022-12-11T12:43:36.214Z,0.50
2022-12-11T12:44:39.559Z,0.56
2022-12-11T12:45:42.521Z,0.56
2022-12-11T12:47:17.744Z,0.56
2022-12-11T12:48:26.674Z,0.56
2022-12-11T12:49:29.642Z,0.56
2022-12-11T12:51:04.133Z,0.56
2022-12-11T12:52:07.053Z,0.56
2022-12-11T12:53:09.786Z,0.56
2022-12-11T12:54:52.603Z,0.56
2022-12-11T12:55:55.977Z,0.56
2022-12-11T12:56:58.783Z,0.56
2022-12-11T12:58:33.443Z,0.56
2022-12-11T12:59:36.132Z,0.56
2022-12-11T13:00:13.479Z,0.56
2022-12-11T13:01:16.844Z,0.56
2022-12-11T13:02:19.994Z,0.63
2022-12-11T13:03:54.862Z,0.63
2022-12-11T13:05:37.131Z,0.63
2022-12-11T13:06:39.847Z,0.63
2022-12-11T13:08:14.742Z,0.63
2022-12-11T13:09:18.005Z,0.63
2022-12-11T13:10:20.953Z,0.63
2022-12-11T13:11:55.556Z,0.63
2022-12-11T13:12:58.365Z,0.63
2022-12-11T13:14:01.410Z,0.63
2022-12-11T13:15:36.300Z,0.63
2022-12-11T13:16:39.279Z,0.63
2022-12-11T13:17:42.359Z,0.63
2022-12-11T13:19:16.854Z,0.63
2022-12-11T13:20:26.813Z,0.63
2022-12-11T13:21:29.492Z,0.56
2022-12-11T13:23:04.110Z,0.56
2022-12-11T13:24:06.836Z,0.56
2022-12-11T13:25:10.014Z,0.56
2022-12-11T13:26:51.042Z,0.56
2022-12-11T13:27:53.865Z,0.63
2022-12-11T13:28:56.633Z,0.56
2022-12-11T13:30:31.101Z,0.56
2022-12-11T13:31:40.408Z,0.56
2022-12-11T13:32:43.552Z,0.56
2022-12-11T13:34:18.056Z,0.63
2022-12-11T13:35:20.904Z,0.63
2022-12-11T13:36:24.907Z,0.63
2022-12-11T13:37:59.954Z,0.56
2022-12-11T13:39:02.660Z,0.56
2022-12-11T13:40:05.473Z,0.56
2022-12-11T13:41:40.196Z,0.56
2022-12-11T13:42:48.109Z,0.56
2022-12-11T13:43:51.082Z,0.56
2022-12-11T13:45:25.817Z,0.56
2022-12-11T13:46:29.092Z,0.56
2022-12-11T13:47:32.134Z,0.56
2022-12-11T13:49:06.755Z,0.56
2022-12-11T13:50:09.507Z,0.56
2022-12-11T13:51:12.285Z,0.56
2022-12-11T13:52:46.909Z,0.56
2022-12-11T13:53:49.712Z,0.56
2022-12-11T13:54:57.604Z,0.56
2022-12-11T13:56:32.500Z,0.56
2022-12-11T13:57:35.317Z,0.56
2022-12-11T13:58:38.117Z,0.56
2022-12-11T14:00:15.887Z,0.56
2022-12-11T14:01:20.593Z,0.50
2022-12-11T14:02:23.651Z,0.56
2022-12-11T14:03:58.566Z,0.56
2022-12-11T14:05:01.271Z,0.50
2022-12-11T14:06:04.606Z,0.50
2022-12-11T14:07:47.598Z,0.50
2022-12-11T14:08:50.998Z,0.50
2022-12-11T14:09:53.909Z,0.50
2022-12-11T14:11:28.753Z,0.50
2022-12-11T14:12:37.077Z,0.50
2022-12-11T14:13:39.796Z,0.50
2022-12-11T14:15:14.456Z,0.50
2022-12-11T14:16:17.172Z,0.50
2022-12-11T14:17:20.609Z,0.50
2022-12-11T14:19:02.326Z,0.50
2022-12-11T14:20:05.153Z,0.50
2022-12-11T14:21:08.429Z,0.50
2022-12-11T14:22:43.069Z,0.50
2022-12-11T14:23:45.947Z,0.50
2022-12-11T14:24:48.829Z,0.50
2022-12-11T14:26:27.230Z,0.50
2022-12-11T14:27:30.003Z,0.50
2022-12-11T14:28:32.733Z,0.50
2022-12-11T14:30:07.456Z,0.50
2022-12-11T14:31:11.015Z,0.50
2022-12-11T14:32:14.263Z,0.50
2022-12-11T14:33:48.759Z,0.44
2022-12-11T14:34:51.705Z,0.44
2022-12-11T14:35:54.541Z,0.50
2022-12-11T14:37:29.182Z,0.50
2022-12-11T14:38:31.935Z,0.44
2022-12-11T14:39:34.676Z,0.44
2022-12-11T14:41:09.376Z,0.50
2022-12-11T14:42:12.124Z,0.44
2022-12-11T14:43:14.898Z,0.44
2022-12-11T14:44:49.416Z,0.44
2022-12-11T14:45:52.367Z,0.44
2022-12-11T14:46:55.816Z,0.44
2022-12-11T14:48:30.380Z,0.44
2022-12-11T14:49:40.897Z,0.44
2022-12-11T14:50:44.276Z,0.44
2022-12-11T14:52:18.948Z,0.44
2022-12-11T14:53:21.789Z,0.44
2022-12-11T14:54:24.656Z,0.44
2022-12-11T14:55:59.423Z,0.44
2022-12-11T14:57:02.278Z,0.44
2022-12-11T14:58:05.310Z,0.44
2022-12-11T14:59:39.912Z,0.44
2022-12-11T15:00:12.888Z,0.44
2022-12-11T15:01:16.089Z,0.44
2022-12-11T15:02:19.562Z,0.44
2022-12-11T15:03:54.894Z,0.44
2022-12-11T15:04:57.632Z,0.38
2022-12-11T15:06:00.372Z,0.44
2022-12-11T15:07:35.008Z,0.44
2022-12-11T15:08:38.129Z,0.44
2022-12-11T15:09:40.911Z,0.44
2022-12-11T15:11:16.077Z,0.44
2022-12-11T15:12:18.925Z,0.44
2022-12-11T15:13:21.695Z,0.44
2022-12-11T15:14:56.305Z,0.44
2022-12-11T15:15:59.093Z,0.44
2022-12-11T15:17:02.128Z,0.44
2022-12-11T15:18:39.179Z,0.44
2022-12-11T15:19:41.966Z,0.44
2022-12-11T15:20:45.772Z,0.44
2022-12-11T15:22:20.450Z,0.44
2022-12-11T15:23:23.231Z,0.44
2022-12-11T15:24:26.048Z,0.44
2022-12-11T15:26:00.649Z,0.44
2022-12-11T15:27:03.520Z,0.44
2022-12-11T15:28:06.361Z,0.44
2022-12-11T15:29:41.089Z,0.38
2022-12-11T15:30:44.359Z,0.38
2022-12-11T15:31:47.641Z,0.44
2022-12-11T15:33:22.339Z,0.44
2022-12-11T15:34:31.659Z,0.38
2022-12-11T15:35:34.443Z,0.44
2022-12-11T15:37:08.909Z,0.38
2022-12-11T15:38:11.889Z,0.38
2022-12-11T15:39:14.758Z,0.38
2022-12-11T15:40:50.139Z,0.38
2022-12-11T15:41:52.983Z,0.38
2022-12-11T15:42:55.698Z,0.38
2022-12-11T15:44:37.263Z,0.38
2022-12-11T15:45:40.080Z,0.38
2022-12-11T15:46:43.501Z,0.38
2022-12-11T15:48:18.208Z,0.38
2022-12-11T15:49:21.066Z,0.38
2022-12-11T15:50:24.048Z,0.38
2022-12-11T15:51:58.648Z,0.38
2022-12-11T15:53:01.591Z,0.38
2022-12-11T15:54:04.433Z,0.38
2022-12-11T15:55:39.028Z,0.38
2022-12-11T15:56:41.883Z,0.31
2022-12-11T15:57:44.745Z,0.38
2022-12-11T15:59:19.384Z,0.31
2022-12-11T16:00:12.163Z,0.38
2022-12-11T16:01:15.052Z,0.38
2022-12-11T16:02:18.386Z,0.38
2022-12-11T16:03:53.423Z,0.31
2022-12-11T16:05:02.110Z,0.38
2022-12-11T16:06:05.492Z,0.38
2022-12-11T16:07:40.153Z,0.38
2022-12-11T16:08:43.336Z,0.31
2022-12-11T16:09:46.199Z,0.31
2022-12-11T16:11:20.750Z,0.31